createdAt,value
2018-05-14T00:01:56.407Z,14.03
2018-05-14T00:04:26.489Z,14.05
2018-05-14T00:06:55.553Z,14.04
2018-05-14T00:09:23.865Z,14.06
2018-05-14T00:11:52.136Z,14.05
2018-05-14T00:14:20.532Z,14.09
2018-05-14T00:16:49.099Z,14.09
2018-05-14T00:19:17.514Z,14.04
2018-05-14T00:21:45.823Z,14.10
2018-05-14T00:24:14.111Z,14.10
2018-05-14T00:26:42.435Z,14.11
2018-05-14T00:29:10.872Z,14.06
2018-05-14T00:31:39.941Z,14.13
2018-05-14T00:34:09.110Z,14.12
2018-05-14T00:36:37.500Z,14.07
2018-05-14T00:39:06.008Z,14.12
2018-05-14T00:41:34.380Z,14.16
2018-05-14T00:44:03.817Z,14.15
2018-05-14T00:46:33.130Z,14.14
2018-05-14T00:49:01.426Z,14.16
2018-05-14T00:51:29.735Z,14.19
2018-05-14T00:53:58.121Z,14.19
2018-05-14T00:56:26.420Z,14.19
2018-05-14T00:58:54.711Z,14.20
2018-05-14T01:01:22.991Z,14.23
2018-05-14T01:03:51.360Z,14.22
2018-05-14T01:06:19.647Z,14.26
2018-05-14T01:08:47.930Z,14.24
2018-05-14T01:11:17.093Z,14.22
2018-05-14T01:13:45.465Z,14.21
2018-05-14T01:16:13.744Z,14.24
2018-05-14T01:18:42.058Z,14.23
2018-05-14T01:21:10.445Z,14.23
2018-05-14T01:23:38.874Z,14.22
2018-05-14T01:26:07.188Z,14.23
2018-05-14T01:28:36.360Z,14.26
2018-05-14T01:31:05.518Z,14.29
2018-05-14T01:33:33.904Z,14.27
2018-05-14T01:36:02.959Z,14.29
2018-05-14T01:38:31.303Z,14.28
2018-05-14T01:40:59.696Z,14.27
2018-05-14T01:43:28.860Z,14.28
2018-05-14T01:45:57.214Z,14.27
2018-05-14T01:48:25.504Z,14.29
2018-05-14T01:50:53.921Z,14.29
2018-05-14T01:53:23.097Z,14.33
2018-05-14T01:55:52.204Z,14.37
2018-05-14T01:58:20.451Z,14.39
2018-05-14T02:00:50.747Z,14.36
2018-05-14T02:03:19.023Z,14.39
2018-05-14T02:05:47.324Z,14.41
2018-05-14T02:08:15.613Z,14.37
2018-05-14T02:10:43.951Z,14.42
2018-05-14T02:13:12.229Z,14.41
2018-05-14T02:15:40.575Z,14.42
2018-05-14T02:18:09.686Z,14.41
2018-05-14T02:20:37.993Z,14.44
2018-05-14T02:23:06.296Z,14.45
2018-05-14T02:25:34.780Z,14.45
2018-05-14T02:28:03.190Z,14.45
2018-05-14T02:30:31.543Z,14.44
2018-05-14T02:33:00.280Z,14.43
2018-05-14T02:35:29.714Z,14.45
2018-05-14T02:37:58.345Z,14.45
2018-05-14T02:40:28.406Z,14.47
2018-05-14T02:42:56.692Z,14.46
2018-05-14T02:45:25.124Z,14.45
2018-05-14T02:47:53.427Z,14.43
2018-05-14T02:50:23.304Z,14.46
2018-05-14T02:52:51.691Z,14.47
2018-05-14T02:55:19.986Z,14.51
2018-05-14T02:57:48.381Z,14.52
2018-05-14T03:00:16.656Z,14.51
2018-05-14T03:02:45.054Z,14.50
2018-05-14T03:05:13.345Z,14.56
2018-05-14T03:07:41.635Z,14.53
2018-05-14T03:10:10.691Z,14.52
2018-05-14T03:12:38.972Z,14.55
2018-05-14T03:15:07.328Z,14.52
2018-05-14T03:17:35.823Z,14.50
2018-05-14T03:20:04.937Z,14.52
2018-05-14T03:22:33.377Z,14.52
2018-05-14T03:25:01.651Z,14.54
2018-05-14T03:27:29.957Z,14.53
2018-05-14T03:29:58.232Z,14.60
2018-05-14T03:32:26.606Z,14.54
2018-05-14T03:34:54.890Z,14.49
2018-05-14T03:37:23.412Z,14.55
2018-05-14T03:39:51.705Z,14.55
2018-05-14T03:42:20.002Z,14.54
2018-05-14T03:44:48.266Z,14.53
2018-05-14T03:47:17.464Z,14.49
2018-05-14T03:49:45.780Z,14.50
2018-05-14T03:52:14.093Z,14.54
2018-05-14T03:54:43.159Z,14.53
2018-05-14T03:57:11.549Z,14.55
2018-05-14T03:59:57.489Z,14.53
2018-05-14T04:02:43.693Z,14.56
2018-05-14T04:05:19.821Z,14.56
2018-05-14T04:07:48.869Z,14.56
2018-05-14T04:10:17.225Z,14.58
2018-05-14T04:12:46.327Z,14.58
2018-05-14T04:15:15.382Z,14.58
2018-05-14T04:17:43.658Z,14.59
2018-05-14T04:20:12.959Z,14.59
2018-05-14T04:22:41.235Z,14.61
2018-05-14T04:25:10.287Z,14.57
2018-05-14T04:27:38.578Z,14.63
2018-05-14T04:30:06.943Z,14.64
2018-05-14T04:32:35.149Z,14.65
2018-05-14T04:35:03.458Z,14.69
2018-05-14T04:37:31.742Z,14.67
2018-05-14T04:39:59.998Z,14.67
2018-05-14T04:42:28.292Z,14.69
2018-05-14T04:44:57.341Z,14.69
2018-05-14T04:47:25.702Z,14.72
2018-05-14T04:49:54.017Z,14.73
2018-05-14T04:52:22.366Z,14.74
2018-05-14T04:54:51.444Z,14.76
2018-05-14T04:57:19.751Z,14.78
2018-05-14T04:59:48.827Z,14.80
2018-05-14T05:02:17.124Z,14.85
2018-05-14T05:04:45.423Z,14.85
2018-05-14T05:07:13.706Z,14.88
2018-05-14T05:09:42.149Z,14.90
2018-05-14T05:12:11.273Z,14.95
2018-05-14T05:14:39.581Z,14.97
2018-05-14T05:17:07.902Z,14.99
2018-05-14T05:19:36.897Z,14.98
2018-05-14T05:22:05.160Z,15.00
2018-05-14T05:24:33.436Z,14.95
2018-05-14T05:27:01.750Z,14.99
2018-05-14T05:29:30.007Z,15.00
2018-05-14T05:31:58.303Z,15.02
2018-05-14T05:34:26.609Z,15.02
2018-05-14T05:36:54.993Z,15.00
2018-05-14T05:39:23.421Z,15.10
2018-05-14T05:41:51.802Z,15.14
2018-05-14T05:44:20.092Z,15.19
2018-05-14T05:46:48.476Z,15.27
2018-05-14T05:49:16.856Z,15.27
2018-05-14T05:51:45.151Z,15.25
2018-05-14T05:54:15.694Z,15.32
2018-05-14T05:56:45.116Z,15.33
2018-05-14T05:59:13.549Z,15.37
2018-05-14T06:01:41.847Z,15.42
2018-05-14T06:04:10.403Z,15.47
2018-05-14T06:06:38.686Z,15.48
2018-05-14T06:09:07.075Z,15.44
2018-05-14T06:11:35.462Z,15.45
2018-05-14T06:14:03.739Z,15.47
2018-05-14T06:16:32.778Z,15.47
2018-05-14T06:19:01.157Z,15.46
2018-05-14T06:21:29.564Z,15.47
2018-05-14T06:23:58.654Z,15.50
2018-05-14T06:26:26.968Z,15.50
2018-05-14T06:28:55.328Z,15.58
2018-05-14T06:31:23.631Z,15.62
2018-05-14T06:33:52.023Z,15.65
2018-05-14T06:36:20.317Z,15.62
2018-05-14T06:38:48.575Z,15.70
2018-05-14T06:41:17.627Z,15.78
2018-05-14T06:43:45.901Z,15.85
2018-05-14T06:46:14.294Z,15.91
2018-05-14T06:48:42.634Z,16.01
2018-05-14T06:51:11.800Z,16.02
2018-05-14T06:53:40.194Z,16.01
2018-05-14T06:56:08.581Z,16.06
2018-05-14T06:58:36.869Z,16.05
2018-05-14T07:01:05.239Z,16.11
2018-05-14T07:03:34.311Z,16.17
2018-05-14T07:06:02.576Z,16.28
2018-05-14T07:08:30.855Z,16.39
2018-05-14T07:10:59.150Z,16.52
2018-05-14T07:13:27.420Z,16.67
2018-05-14T07:15:56.649Z,16.71
2018-05-14T07:18:25.739Z,16.89
2018-05-14T07:20:54.867Z,17.02
2018-05-14T07:23:23.188Z,17.17
2018-05-14T07:25:52.436Z,17.38
2018-05-14T07:28:20.811Z,17.49
2018-05-14T07:30:49.069Z,17.59
2018-05-14T07:33:17.454Z,17.68
2018-05-14T07:35:45.736Z,17.80
2018-05-14T07:38:14.849Z,18.00
2018-05-14T07:40:43.248Z,18.05
2018-05-14T07:43:11.513Z,18.27
2018-05-14T07:45:40.540Z,18.60
2018-05-14T07:48:08.813Z,19.19
2018-05-14T07:50:37.839Z,19.56
2018-05-14T07:53:06.121Z,19.74
2018-05-14T07:55:35.183Z,19.58
2018-05-14T07:58:03.455Z,19.12
2018-05-14T08:00:31.720Z,19.04
2018-05-14T08:03:00.025Z,19.24
2018-05-14T08:05:28.302Z,19.33
2018-05-14T08:07:56.577Z,19.29
2018-05-14T08:10:25.680Z,19.06
2018-05-14T08:12:54.816Z,18.95
2018-05-14T08:15:23.197Z,19.19
2018-05-14T08:17:52.247Z,19.66
2018-05-14T08:20:20.518Z,20.02
2018-05-14T08:22:48.793Z,20.59
2018-05-14T08:25:17.177Z,20.93
2018-05-14T08:27:45.443Z,21.00
2018-05-14T08:30:14.487Z,20.79
2018-05-14T08:32:42.767Z,20.63
2018-05-14T08:35:11.055Z,20.73
2018-05-14T08:37:39.351Z,21.47
2018-05-14T08:40:08.401Z,22.17
2018-05-14T08:42:36.679Z,22.27
2018-05-14T08:45:05.003Z,22.62
2018-05-14T08:47:33.324Z,22.64
2018-05-14T08:50:02.343Z,22.77
2018-05-14T08:52:30.625Z,22.72
2018-05-14T08:54:59.655Z,22.41
2018-05-14T08:57:27.912Z,22.11
2018-05-14T08:59:56.970Z,22.12
2018-05-14T09:02:25.267Z,22.30
2018-05-14T09:04:53.719Z,22.73
2018-05-14T09:07:23.055Z,23.24
2018-05-14T09:09:51.364Z,23.68
2018-05-14T09:12:19.653Z,23.99
2018-05-14T09:14:47.938Z,24.29
2018-05-14T09:17:16.312Z,24.59
2018-05-14T09:19:44.690Z,25.09
2018-05-14T09:22:13.016Z,25.52
2018-05-14T09:24:41.373Z,25.18
2018-05-14T09:27:09.635Z,25.08
2018-05-14T09:29:38.693Z,25.56
2018-05-14T09:32:06.986Z,25.44
2018-05-14T09:34:35.274Z,26.00
2018-05-14T09:37:03.638Z,26.02
2018-05-14T09:39:32.699Z,25.88
2018-05-14T09:42:00.997Z,25.84
2018-05-14T09:44:29.261Z,25.72
2018-05-14T09:46:57.628Z,26.17
2018-05-14T09:49:25.914Z,25.77
2018-05-14T09:51:54.210Z,26.21
2018-05-14T09:54:22.499Z,26.14
2018-05-14T09:56:50.777Z,26.02
2018-05-14T09:59:19.027Z,26.28
2018-05-14T10:01:47.327Z,26.62
2018-05-14T10:04:15.646Z,26.51
2018-05-14T10:06:44.864Z,26.36
2018-05-14T10:09:13.159Z,26.82
2018-05-14T10:11:41.430Z,27.25
2018-05-14T10:14:10.552Z,27.63
2018-05-14T10:16:38.803Z,27.72
2018-05-14T10:19:07.071Z,27.55
2018-05-14T10:21:35.455Z,27.97
2018-05-14T10:24:03.650Z,27.26
2018-05-14T10:26:31.903Z,27.16
2018-05-14T10:29:00.187Z,27.26
2018-05-14T10:31:29.231Z,27.65
2018-05-14T10:33:57.492Z,27.75
2018-05-14T10:36:25.897Z,28.14
2018-05-14T10:38:54.196Z,27.96
2018-05-14T10:41:22.550Z,28.37
2018-05-14T10:43:50.887Z,28.75
2018-05-14T10:46:19.146Z,28.81
2018-05-14T10:48:47.426Z,28.57
2018-05-14T10:51:16.457Z,28.27
2018-05-14T10:53:44.810Z,29.05
2018-05-14T10:56:13.076Z,29.42
2018-05-14T10:58:41.392Z,29.52
2018-05-14T11:01:09.722Z,29.90
2018-05-14T11:03:37.980Z,29.40
2018-05-14T11:06:07.014Z,29.81
2018-05-14T11:08:35.292Z,29.54
2018-05-14T11:11:04.366Z,30.09
2018-05-14T11:13:32.615Z,30.04
2018-05-14T11:16:00.904Z,29.89
2018-05-14T11:18:29.167Z,29.47
2018-05-14T11:20:58.193Z,29.66
2018-05-14T11:23:27.479Z,29.92
2018-05-14T11:25:56.541Z,29.93
2018-05-14T11:28:24.858Z,29.65
2018-05-14T11:30:53.153Z,29.83
2018-05-14T11:33:21.431Z,30.18
2018-05-14T11:35:49.774Z,30.34
2018-05-14T11:38:18.060Z,30.52
2018-05-14T11:40:47.095Z,30.49
2018-05-14T11:43:15.392Z,30.66
2018-05-14T11:45:43.765Z,30.43
2018-05-14T11:48:12.040Z,30.94
2018-05-14T11:50:41.178Z,30.86
2018-05-14T11:53:09.422Z,30.88
2018-05-14T11:55:37.685Z,30.71
2018-05-14T11:58:05.955Z,30.96
2018-05-14T12:00:34.483Z,30.58
2018-05-14T12:03:02.869Z,30.82
2018-05-14T12:05:31.090Z,30.45
2018-05-14T12:08:00.187Z,30.72
2018-05-14T12:10:29.300Z,31.14
2018-05-14T12:12:57.580Z,30.89
2018-05-14T12:15:27.451Z,30.73
2018-05-14T12:17:55.836Z,30.46
2018-05-14T12:20:24.231Z,30.21
2018-05-14T12:22:52.541Z,30.33
2018-05-14T12:25:20.819Z,30.50
2018-05-14T12:27:49.106Z,29.74
2018-05-14T12:30:17.384Z,30.71
2018-05-14T12:32:45.644Z,30.79
2018-05-14T12:35:13.918Z,30.11
2018-05-14T12:37:42.199Z,30.34
2018-05-14T12:40:10.467Z,29.79
2018-05-14T12:42:38.841Z,29.86
2018-05-14T12:45:07.895Z,29.99
2018-05-14T12:47:36.159Z,30.53
2018-05-14T12:50:04.437Z,30.46
2018-05-14T12:52:32.735Z,29.88
2018-05-14T12:55:01.113Z,30.18
2018-05-14T12:57:29.393Z,30.77
2018-05-14T12:59:58.459Z,30.63
2018-05-14T13:02:26.914Z,30.33
2018-05-14T13:04:55.220Z,30.31
2018-05-14T13:07:23.515Z,30.13
2018-05-14T13:09:52.396Z,30.48
2018-05-14T13:12:20.656Z,29.97
2018-05-14T13:14:48.945Z,29.85
2018-05-14T13:17:18.092Z,29.82
2018-05-14T13:19:46.336Z,29.78
2018-05-14T13:22:14.661Z,29.78
2018-05-14T13:24:43.698Z,30.08
2018-05-14T13:27:11.977Z,30.26
2018-05-14T13:29:40.297Z,30.09
2018-05-14T13:32:08.629Z,29.82
2018-05-14T13:34:36.860Z,30.00
2018-05-14T13:37:05.155Z,29.72
2018-05-14T13:39:33.427Z,30.08
2018-05-14T13:42:01.806Z,29.78
2018-05-14T13:44:30.095Z,29.89
2018-05-14T13:46:59.109Z,30.27
2018-05-14T13:49:27.400Z,29.89
2018-05-14T13:51:55.749Z,29.69
2018-05-14T13:54:24.077Z,29.33
2018-05-14T13:56:52.411Z,29.21
2018-05-14T13:59:20.728Z,29.63
2018-05-14T14:01:49.045Z,29.49
2018-05-14T14:04:18.068Z,29.41
2018-05-14T14:06:46.345Z,29.29
2018-05-14T14:09:14.615Z,29.31
2018-05-14T14:11:43.636Z,28.99
2018-05-14T14:14:11.908Z,29.16
2018-05-14T14:16:40.930Z,29.50
2018-05-14T14:19:09.967Z,29.21
2018-05-14T14:21:38.251Z,29.41
2018-05-14T14:24:06.806Z,29.54
2018-05-14T14:26:35.755Z,29.36
2018-05-14T14:29:04.135Z,29.56
2018-05-14T14:31:32.421Z,29.69
2018-05-14T14:34:00.751Z,29.28
2018-05-14T14:36:29.223Z,29.46
2018-05-14T14:38:57.409Z,29.25
2018-05-14T14:41:25.893Z,29.18
2018-05-14T14:43:54.162Z,29.29
2018-05-14T14:46:22.525Z,29.28
2018-05-14T14:48:50.760Z,28.88
2018-05-14T14:51:19.053Z,29.09
2018-05-14T14:53:47.330Z,28.92
2018-05-14T14:56:16.601Z,29.03
2018-05-14T14:58:44.951Z,29.02
2018-05-14T15:01:13.963Z,28.61
2018-05-14T15:03:42.244Z,28.86
2018-05-14T15:06:10.517Z,28.88
2018-05-14T15:08:39.529Z,28.63
2018-05-14T15:11:08.573Z,28.71
2018-05-14T15:13:36.857Z,28.69
2018-05-14T15:16:05.134Z,28.52
2018-05-14T15:18:34.327Z,28.59
2018-05-14T15:21:03.377Z,28.28
2018-05-14T15:23:31.633Z,28.21
2018-05-14T15:25:59.931Z,28.52
2018-05-14T15:28:28.226Z,28.46
2018-05-14T15:30:56.514Z,28.14
2018-05-14T15:33:24.776Z,28.02
2018-05-14T15:35:53.644Z,28.14
2018-05-14T15:38:21.996Z,28.04
2018-05-14T15:40:50.260Z,27.98
2018-05-14T15:43:18.539Z,27.76
2018-05-14T15:45:46.840Z,27.92
2018-05-14T15:48:15.159Z,27.97
2018-05-14T15:50:43.464Z,27.87
2018-05-14T15:53:11.901Z,27.88
2018-05-14T15:55:40.197Z,28.05
2018-05-14T15:58:08.483Z,27.93
2018-05-14T16:00:36.759Z,27.89
2018-05-14T16:03:05.819Z,27.81
2018-05-14T16:05:34.849Z,27.72
2018-05-14T16:08:03.205Z,27.57
2018-05-14T16:10:31.392Z,27.52
2018-05-14T16:13:00.514Z,27.48
2018-05-14T16:15:29.622Z,27.52
2018-05-14T16:17:57.921Z,27.49
2018-05-14T16:20:26.311Z,27.45
2018-05-14T16:22:54.569Z,27.18
2018-05-14T16:25:22.891Z,27.08
2018-05-14T16:27:51.151Z,26.92
2018-05-14T16:30:20.187Z,27.01
2018-05-14T16:32:48.443Z,27.00
2018-05-14T16:35:16.768Z,27.03
2018-05-14T16:37:45.016Z,26.77
2018-05-14T16:40:13.457Z,26.68
2018-05-14T16:42:41.759Z,26.65
2018-05-14T16:45:10.022Z,26.66
2018-05-14T16:47:39.147Z,26.63
2018-05-14T16:50:07.427Z,26.60
2018-05-14T16:52:36.454Z,26.62
2018-05-14T16:55:04.736Z,26.45
2018-05-14T16:57:33.063Z,26.50
2018-05-14T17:00:01.277Z,26.52
2018-05-14T17:02:29.546Z,26.52
2018-05-14T17:04:57.824Z,26.43
2018-05-14T17:07:26.102Z,26.37
2018-05-14T17:09:54.373Z,26.31
2018-05-14T17:12:22.673Z,26.27
2018-05-14T17:14:50.951Z,26.28
2018-05-14T17:17:19.430Z,26.25
2018-05-14T17:19:47.631Z,26.24
2018-05-14T17:22:15.920Z,26.15
2018-05-14T17:24:44.954Z,26.12
2018-05-14T17:27:13.229Z,26.05
2018-05-14T17:29:41.493Z,26.07
2018-05-14T17:32:10.503Z,26.02
2018-05-14T17:34:39.563Z,26.06
2018-05-14T17:37:07.917Z,26.03
2018-05-14T17:39:37.036Z,26.03
2018-05-14T17:42:05.287Z,26.06
2018-05-14T17:44:33.558Z,26.16
2018-05-14T17:47:01.973Z,26.36
2018-05-14T17:49:30.496Z,26.54
2018-05-14T17:52:00.267Z,26.92
2018-05-14T17:54:29.662Z,27.27
2018-05-14T17:56:58.490Z,27.14
2018-05-14T17:59:27.519Z,27.15
2018-05-14T18:01:56.694Z,26.88
2018-05-14T18:04:25.044Z,26.61
2018-05-14T18:06:53.337Z,26.74
2018-05-14T18:09:21.716Z,26.51
2018-05-14T18:11:51.031Z,26.70
2018-05-14T18:14:21.886Z,26.46
2018-05-14T18:16:51.617Z,26.44
2018-05-14T18:19:21.590Z,26.33
2018-05-14T18:21:50.208Z,26.95
2018-05-14T18:24:18.981Z,26.43
2018-05-14T18:26:49.778Z,26.49
2018-05-14T18:38:30.138Z,26.12
2018-05-14T18:41:01.402Z,25.79
2018-05-14T18:43:32.644Z,25.69
2018-05-14T18:46:01.225Z,25.46
2018-05-14T18:48:29.965Z,25.40
2018-05-14T18:50:59.745Z,25.27
2018-05-14T18:53:28.028Z,25.12
2018-05-14T18:55:56.344Z,24.94
2018-05-14T18:58:24.789Z,24.82
2018-05-14T19:00:53.876Z,24.68
2018-05-14T19:03:22.527Z,24.61
2018-05-14T19:05:50.909Z,24.63
2018-05-14T19:08:20.149Z,24.51
2018-05-14T19:10:53.813Z,24.41
2018-05-14T19:13:22.872Z,24.34
2018-05-14T19:15:56.592Z,24.22
2018-05-14T19:18:24.874Z,24.19
2018-05-14T19:20:53.159Z,24.11
2018-05-14T19:23:26.840Z,24.08
2018-05-14T19:25:55.167Z,23.97
2018-05-14T19:28:28.972Z,23.96
2018-05-14T19:30:57.300Z,23.87
2018-05-14T19:33:30.964Z,23.81
2018-05-14T19:36:02.379Z,23.78
2018-05-14T19:38:30.991Z,23.73
2018-05-14T19:40:59.333Z,23.65
2018-05-14T19:43:27.629Z,23.61
2018-05-14T19:45:55.915Z,23.55
2018-05-14T19:48:24.193Z,23.51
2018-05-14T19:50:53.312Z,23.47
2018-05-14T19:53:21.528Z,23.48
2018-05-14T19:55:49.803Z,23.46
2018-05-14T19:58:18.078Z,23.32
2018-05-14T20:00:47.131Z,23.31
2018-05-14T20:03:15.444Z,23.27
2018-05-14T20:05:43.716Z,23.18
2018-05-14T20:08:11.968Z,23.11
2018-05-14T20:10:40.269Z,23.12
2018-05-14T20:13:09.304Z,22.98
2018-05-14T20:15:37.561Z,22.76
2018-05-14T20:18:06.082Z,22.79
2018-05-14T20:20:34.913Z,22.90
2018-05-14T20:23:12.604Z,22.77
2018-05-14T20:25:42.028Z,22.55
2018-05-14T20:28:11.364Z,22.44
2018-05-14T20:30:40.651Z,22.30
2018-05-14T20:33:09.091Z,22.24
2018-05-14T20:35:38.122Z,22.09
2018-05-14T20:38:07.560Z,22.05
2018-05-14T20:40:35.931Z,21.99
2018-05-14T20:43:04.206Z,21.93
2018-05-14T20:45:33.451Z,21.88
2018-05-14T20:48:03.481Z,21.80
2018-05-14T20:50:34.809Z,21.70
2018-05-14T20:53:03.418Z,21.61
2018-05-14T20:55:33.260Z,21.53
2018-05-14T20:58:01.597Z,21.47
2018-05-14T21:00:29.856Z,21.43
2018-05-14T21:02:58.164Z,21.43
2018-05-14T21:05:28.214Z,21.37
2018-05-14T21:07:58.470Z,21.32
2018-05-14T21:10:28.327Z,21.28
2018-05-14T21:12:58.116Z,21.27
2018-05-14T21:15:27.654Z,21.21
2018-05-14T21:17:57.531Z,21.16
2018-05-14T21:20:26.614Z,21.09
2018-05-14T21:22:56.561Z,21.02
2018-05-14T21:25:26.871Z,20.99
2018-05-14T21:27:55.924Z,20.94
2018-05-14T21:30:25.773Z,20.94
2018-05-14T21:32:54.512Z,20.90
2018-05-14T21:35:23.987Z,20.84
2018-05-14T21:37:52.347Z,20.87
2018-05-14T21:40:20.702Z,20.86
2018-05-14T21:42:49.730Z,20.82
2018-05-14T21:45:18.007Z,20.74
2018-05-14T21:47:46.614Z,20.69
2018-05-14T21:50:14.969Z,20.70
2018-05-14T21:52:43.222Z,20.57
2018-05-14T21:55:11.802Z,20.55
2018-05-14T21:57:40.259Z,20.49
2018-05-14T22:00:10.364Z,20.52
2018-05-14T22:02:38.755Z,20.51
2018-05-14T22:05:07.768Z,20.53
2018-05-14T22:07:36.814Z,20.44
2018-05-14T22:10:05.110Z,20.41
2018-05-14T22:12:33.610Z,20.33
2018-05-14T22:15:01.869Z,20.36
2018-05-14T22:17:30.904Z,20.30
2018-05-14T22:19:59.191Z,20.31
2018-05-14T22:22:27.448Z,20.35
2018-05-14T22:24:55.734Z,20.32
2018-05-14T22:27:23.988Z,20.37
2018-05-14T22:29:52.259Z,20.26
2018-05-14T22:32:20.536Z,20.27
2018-05-14T22:34:48.797Z,20.15
2018-05-14T22:37:17.941Z,20.10
2018-05-14T22:39:46.967Z,19.93
2018-05-14T22:42:15.239Z,19.83
2018-05-14T22:44:43.521Z,19.76
2018-05-14T22:47:12.631Z,19.66
2018-05-14T22:49:41.316Z,19.59
2018-05-14T22:52:10.348Z,19.47
2018-05-14T22:54:38.624Z,19.33
2018-05-14T22:57:07.944Z,19.22
2018-05-14T22:59:37.144Z,19.07
2018-05-14T23:02:06.471Z,18.97
2018-05-14T23:04:34.735Z,18.84
2018-05-14T23:07:03.840Z,18.73
2018-05-14T23:09:32.372Z,18.68
2018-05-14T23:12:01.016Z,18.63
2018-05-14T23:14:29.289Z,18.57
2018-05-14T23:16:58.152Z,18.47
2018-05-14T23:19:28.470Z,18.44
2018-05-14T23:21:59.407Z,18.37
2018-05-14T23:24:27.855Z,18.38
2018-05-14T23:26:56.116Z,18.30
2018-05-14T23:29:24.391Z,18.25
2018-05-14T23:31:52.695Z,18.27
2018-05-14T23:34:20.976Z,18.23
2018-05-14T23:36:49.306Z,18.18
2018-05-14T23:39:17.746Z,18.17
2018-05-14T23:41:46.154Z,18.11
2018-05-14T23:44:16.243Z,18.05
2018-05-14T23:46:44.498Z,18.02
2018-05-14T23:49:12.805Z,18.01
2018-05-14T23:51:41.106Z,18.09
2018-05-14T23:54:09.415Z,18.08
2018-05-14T23:56:37.704Z,18.00
2018-05-14T23:59:06.076Z,18.02
